Time;durP1;ratioP1;P1;durP2;ratioP2;P2;SDS_P1;SDS_P2;PMS_P1;PMS_P2;Temp;Humidity;BMP_temperature;BMP_pressure;BME280_temperature;BME280_humidity;BME280_pressure;Samples;Min_cycle;Max_cycle;Signal;HPM_P1;HPM_P2
2023/12/07 00:04:59;;;;;;;17.05;10.60;;;;;;;;;;10427525;28;20226;-77
2023/12/07 00:10:00;;;;;;;18.92;11.30;;;;;;;;;;10425436;28;20221;-77
2023/12/07 00:15:02;;;;;;;20.30;10.50;;;;;;;;;;10430555;28;20210;-77
2023/12/07 00:20:04;;;;;;;20.98;11.40;;;;;;;;;;10390604;28;20218;-77
2023/12/07 00:25:05;;;;;;;20.08;10.77;;;;;;;;;;10443578;28;20228;-78
2023/12/07 00:30:06;;;;;;;20.33;11.35;;;;;;;;;;10428227;28;20207;-78
2023/12/07 00:35:08;;;;;;;23.30;10.95;;;;;;;;;;10410599;28;20232;-77
2023/12/07 00:40:09;;;;;;;24.50;11.60;;;;;;;;;;10387425;28;20204;-77
2023/12/07 00:45:12;;;;;;;25.58;11.05;;;;;;;;;;10441828;28;20187;-77
2023/12/07 00:50:14;;;;;;;18.25;10.80;;;;;;;;;;10426289;28;20207;-77
2023/12/07 00:55:15;;;;;;;19.30;10.85;;;;;;;;;;10434219;28;20240;-75
2023/12/07 01:00:16;;;;;;;22.63;11.63;;;;;;;;;;10421389;28;20634;-76
2023/12/07 01:05:17;;;;;;;21.60;10.85;;;;;;;;;;10425615;28;20392;-76
2023/12/07 01:10:19;;;;;;;24.45;10.90;;;;;;;;;;10417905;28;20219;-76
2023/12/07 01:15:20;;;;;;;24.15;10.88;;;;;;;;;;10428138;28;20667;-76
2023/12/07 01:20:21;;;;;;;19.77;10.90;;;;;;;;;;10431428;28;20249;-77
2023/12/07 01:25:22;;;;;;;19.58;10.35;;;;;;;;;;10428824;28;20364;-76
2023/12/07 01:30:23;;;;;;;19.83;11.38;;;;;;;;;;10416083;28;20585;-77
2023/12/07 01:35:24;;;;;;;18.42;10.02;;;;;;;;;;10430003;28;20214;-77
2023/12/07 01:40:25;;;;;;;22.20;11.95;;;;;;;;;;10419379;28;20233;-76
2023/12/07 01:45:26;;;;;;;21.40;11.30;;;;;;;;;;10420549;28;20211;-77
2023/12/07 01:50:29;;;;;;;22.05;10.90;;;;;;;;;;10417691;28;20664;-77
2023/12/07 01:55:31;;;;;;;19.73;11.60;;;;;;;;;;10422024;28;20242;-77
2023/12/07 02:00:32;;;;;;;24.05;11.02;;;;;;;;;;10414987;28;20281;-77
2023/12/07 02:05:33;;;;;;;25.75;10.60;;;;;;;;;;10421496;28;20226;-77
2023/12/07 02:10:34;;;;;;;18.70;9.63;;;;;;;;;;10399500;28;20314;-77
2023/12/07 02:15:35;;;;;;;19.02;9.95;;;;;;;;;;10387048;28;20211;-77
2023/12/07 02:20:43;;;;;;;17.92;8.90;;;;;;;;;;10427881;28;20222;-77
2023/12/07 02:25:44;;;;;;;16.95;9.90;;;;;;;;;;10424694;28;20297;-77
2023/12/07 02:30:45;;;;;;;18.48;9.93;;;;;;;;;;10422775;28;20603;-77
2023/12/07 02:35:46;;;;;;;15.13;9.52;;;;;;;;;;10431340;28;20210;-77
2023/12/07 02:40:48;;;;;;;21.02;8.95;;;;;;;;;;10419511;28;20210;-76
2023/12/07 02:45:49;;;;;;;16.23;8.60;;;;;;;;;;10423006;28;20381;-76
2023/12/07 02:50:50;;;;;;;19.42;8.82;;;;;;;;;;10432002;28;20305;-76
2023/12/07 02:55:52;;;;;;;16.80;8.90;;;;;;;;;;10429953;28;20207;-76
2023/12/07 03:00:53;;;;;;;19.45;8.73;;;;;;;;;;10420433;28;20218;-76
2023/12/07 03:05:53;;;;;;;17.42;8.85;;;;;;;;;;10413342;28;20222;-76
2023/12/07 03:10:55;;;;;;;16.48;8.05;;;;;;;;;;10431816;28;20723;-76
2023/12/07 03:15:56;;;;;;;17.63;8.23;;;;;;;;;;10429852;28;20211;-76
2023/12/07 03:20:56;;;;;;;12.25;7.60;;;;;;;;;;10427942;28;20222;-77
2023/12/07 03:25:57;;;;;;;15.25;8.32;;;;;;;;;;10429434;28;20218;-76
2023/12/07 03:30:58;;;;;;;12.30;8.02;;;;;;;;;;10416227;28;20609;-76
2023/12/07 03:35:59;;;;;;;12.82;7.70;;;;;;;;;;10433701;28;20329;-76
2023/12/07 03:41:00;;;;;;;10.55;7.22;;;;;;;;;;10413799;28;20293;-77
2023/12/07 03:46:04;;;;;;;16.73;8.77;;;;;;;;;;10429574;28;20238;-76
2023/12/07 03:51:06;;;;;;;13.77;7.85;;;;;;;;;;10433810;28;20718;-77
2023/12/07 03:56:07;;;;;;;12.30;8.00;;;;;;;;;;10411897;28;20596;-76
2023/12/07 04:01:08;;;;;;;13.50;7.40;;;;;;;;;;10428041;28;20222;-76
2023/12/07 04:06:09;;;;;;;11.07;6.80;;;;;;;;;;10432590;28;20253;-76
2023/12/07 04:11:10;;;;;;;14.68;7.47;;;;;;;;;;10427754;28;20222;-76
2023/12/07 04:16:12;;;;;;;11.95;7.32;;;;;;;;;;10418054;28;20593;-76
2023/12/07 04:21:12;;;;;;;12.90;7.00;;;;;;;;;;10426253;28;20218;-76
2023/12/07 04:26:15;;;;;;;12.13;8.00;;;;;;;;;;10431332;28;20604;-76
2023/12/07 04:31:16;;;;;;;9.63;6.18;;;;;;;;;;10433247;28;20377;-76
2023/12/07 04:36:17;;;;;;;9.88;6.78;;;;;;;;;;10415924;28;20584;-76
2023/12/07 04:41:18;;;;;;;10.63;6.72;;;;;;;;;;10432345;28;20225;-76
2023/12/07 04:46:19;;;;;;;9.82;6.68;;;;;;;;;;10424645;28;20207;-76
2023/12/07 04:51:20;;;;;;;11.07;6.95;;;;;;;;;;10433687;28;20214;-76
2023/12/07 04:56:21;;;;;;;9.48;6.15;;;;;;;;;;10421580;28;20207;-76
2023/12/07 05:01:22;;;;;;;9.07;5.90;;;;;;;;;;10425128;28;20266;-77
2023/12/07 05:06:24;;;;;;;11.32;6.40;;;;;;;;;;10423063;28;20613;-76
2023/12/07 05:11:25;;;;;;;7.13;5.68;;;;;;;;;;10423626;28;20310;-76
2023/12/07 05:16:26;;;;;;;9.27;5.63;;;;;;;;;;10428489;28;20239;-76
2023/12/07 05:21:27;;;;;;;11.27;5.80;;;;;;;;;;10424161;28;20294;-76
2023/12/07 05:26:29;;;;;;;10.88;6.70;;;;;;;;;;10416401;28;20206;-76
2023/12/07 05:31:30;;;;;;;8.80;5.45;;;;;;;;;;10426882;28;20375;-76
2023/12/07 05:36:31;;;;;;;11.43;7.13;;;;;;;;;;10429401;28;20269;-76
2023/12/07 05:41:32;;;;;;;8.90;6.55;;;;;;;;;;10418029;28;20211;-76
2023/12/07 05:46:36;;;;;;;8.95;6.13;;;;;;;;;;10408468;28;20585;-76
2023/12/07 05:51:37;;;;;;;12.75;6.78;;;;;;;;;;10431303;28;20223;-75
2023/12/07 05:56:38;;;;;;;12.90;6.88;;;;;;;;;;10416712;28;20634;-75
2023/12/07 06:01:39;;;;;;;12.10;7.10;;;;;;;;;;10402542;28;20222;-77
2023/12/07 06:06:40;;;;;;;9.27;6.32;;;;;;;;;;10406924;28;20230;-77
2023/12/07 06:11:41;;;;;;;11.73;6.85;;;;;;;;;;10415892;28;20772;-77
2023/12/07 06:16:42;;;;;;;10.50;6.82;;;;;;;;;;10414167;28;20272;-76
2023/12/07 06:21:46;;;;;;;9.75;7.30;;;;;;;;;;10395650;28;20222;-77
2023/12/07 06:26:47;;;;;;;11.63;6.55;;;;;;;;;;10421338;28;20207;-76
2023/12/07 06:31:49;;;;;;;10.35;6.25;;;;;;;;;;10420672;28;20717;-78
2023/12/07 06:36:50;;;;;;;11.30;6.35;;;;;;;;;;10413851;28;20242;-75
2023/12/07 06:41:51;;;;;;;9.27;6.10;;;;;;;;;;10421053;28;20332;-77
2023/12/07 06:46:52;;;;;;;12.07;6.25;;;;;;;;;;10429664;28;20241;-77
2023/12/07 06:51:52;;;;;;;13.05;7.60;;;;;;;;;;10418547;28;20227;-77
2023/12/07 06:56:53;;;;;;;10.00;6.60;;;;;;;;;;10408341;28;20217;-77
2023/12/07 07:01:55;;;;;;;14.65;7.43;;;;;;;;;;10426468;28;20223;-77
2023/12/07 07:06:56;;;;;;;12.93;7.22;;;;;;;;;;10416972;28;20249;-77
2023/12/07 07:11:57;;;;;;;11.98;6.88;;;;;;;;;;10428770;28;20308;-77
2023/12/07 07:16:58;;;;;;;10.27;7.30;;;;;;;;;;10432528;28;20241;-77
2023/12/07 07:21:59;;;;;;;11.98;6.72;;;;;;;;;;10422311;28;20223;-77
2023/12/07 07:27:00;;;;;;;12.95;6.70;;;;;;;;;;10464175;28;20625;-78
2023/12/07 07:32:01;;;;;;;18.98;7.88;;;;;;;;;;10415697;28;20238;-77
2023/12/07 07:37:03;;;;;;;16.40;8.43;;;;;;;;;;10380292;28;20241;-78
2023/12/07 07:42:04;;;;;;;13.27;7.60;;;;;;;;;;10409148;28;20341;-77
2023/12/07 07:47:05;;;;;;;13.63;8.35;;;;;;;;;;10419937;28;20218;-77
2023/12/07 07:52:06;;;;;;;16.42;8.98;;;;;;;;;;10428385;28;20222;-77
2023/12/07 07:57:07;;;;;;;17.88;9.25;;;;;;;;;;10412028;28;20230;-77
2023/12/07 08:02:08;;;;;;;15.43;9.10;;;;;;;;;;10421706;28;20218;-77
2023/12/07 08:07:11;;;;;;;16.55;8.52;;;;;;;;;;10423924;28;20224;-76
2023/12/07 08:12:12;;;;;;;18.63;9.75;;;;;;;;;;10405870;28;20223;-76
2023/12/07 08:17:13;;;;;;;17.27;9.15;;;;;;;;;;10400670;28;20908;-75
2023/12/07 08:22:14;;;;;;;15.02;8.98;;;;;;;;;;10422808;28;20222;-77
2023/12/07 08:27:15;;;;;;;18.65;9.63;;;;;;;;;;10422841;28;20210;-76
2023/12/07 08:32:18;;;;;;;23.70;10.60;;;;;;;;;;10422287;28;20305;-76
2023/12/07 08:37:19;;;;;;;20.45;10.20;;;;;;;;;;10417495;28;20230;-76
2023/12/07 08:42:20;;;;;;;22.25;9.15;;;;;;;;;;10416516;28;20218;-76
2023/12/07 08:47:21;;;;;;;17.13;9.18;;;;;;;;;;10396095;28;20210;-76
2023/12/07 08:52:22;;;;;;;14.85;10.13;;;;;;;;;;10416253;28;20638;-76
2023/12/07 08:57:23;;;;;;;22.77;10.68;;;;;;;;;;10419744;28;20696;-76
2023/12/07 09:02:24;;;;;;;22.02;10.73;;;;;;;;;;10405006;28;20214;-76
2023/12/07 09:07:25;;;;;;;21.80;10.82;;;;;;;;;;10406497;28;20657;-76
2023/12/07 09:12:26;;;;;;;27.10;13.23;;;;;;;;;;10403403;28;20696;-76
2023/12/07 09:17:28;;;;;;;22.17;12.63;;;;;;;;;;10431051;28;20283;-76
2023/12/07 09:22:29;;;;;;;20.65;10.38;;;;;;;;;;10419546;28;20724;-76
2023/12/07 09:27:32;;;;;;;17.23;9.20;;;;;;;;;;10404846;28;20222;-76
2023/12/07 09:32:38;;;;;;;18.60;9.52;;;;;;;;;;10413397;28;20218;-76
2023/12/07 09:37:39;;;;;;;18.17;10.43;;;;;;;;;;10401875;28;22004;-76
2023/12/07 09:42:41;;;;;;;15.48;9.05;;;;;;;;;;10399887;28;20222;-76
2023/12/07 09:47:43;;;;;;;16.92;9.15;;;;;;;;;;10390846;28;20211;-76
2023/12/07 09:52:44;;;;;;;21.50;11.30;;;;;;;;;;10421155;28;20325;-76
2023/12/07 09:57:46;;;;;;;20.38;9.88;;;;;;;;;;10420480;28;20245;-77
2023/12/07 10:02:47;;;;;;;15.73;9.40;;;;;;;;;;10406339;28;20225;-76
2023/12/07 10:07:50;;;;;;;19.65;10.40;;;;;;;;;;10406925;28;20274;-77
2023/12/07 10:12:59;;;;;;;15.77;8.85;;;;;;;;;;10403515;28;20647;-76
2023/12/07 10:18:00;;;;;;;17.92;9.30;;;;;;;;;;10424173;28;20767;-77
2023/12/07 10:23:04;;;;;;;18.80;10.45;;;;;;;;;;10429341;28;20222;-77
2023/12/07 10:28:11;;;;;;;20.23;10.55;;;;;;;;;;10448569;28;20691;-77
2023/12/07 10:33:13;;;;;;;17.05;10.38;;;;;;;;;;10411590;28;20223;-76
2023/12/07 10:38:14;;;;;;;21.13;9.48;;;;;;;;;;10426829;28;20211;-77
2023/12/07 10:43:16;;;;;;;17.20;9.32;;;;;;;;;;10423754;28;20231;-76
2023/12/07 10:48:18;;;;;;;18.27;10.48;;;;;;;;;;10425973;28;20214;-77
2023/12/07 10:53:24;;;;;;;20.33;10.15;;;;;;;;;;10417672;28;20302;-77
2023/12/07 10:58:27;;;;;;;14.77;8.93;;;;;;;;;;10430008;28;20229;-76
2023/12/07 11:03:29;;;;;;;18.88;10.02;;;;;;;;;;10427935;28;20664;-76
2023/12/07 11:08:37;;;;;;;18.63;9.32;;;;;;;;;;10456427;28;20254;-77
2023/12/07 11:13:38;;;;;;;19.25;9.93;;;;;;;;;;10397000;28;20301;-77
2023/12/07 11:18:39;;;;;;;14.27;8.20;;;;;;;;;;10420260;28;20761;-78
2023/12/07 11:23:41;;;;;;;16.23;8.93;;;;;;;;;;10429623;28;20325;-77
2023/12/07 11:28:43;;;;;;;15.82;9.55;;;;;;;;;;10424978;28;20730;-76
2023/12/07 11:33:45;;;;;;;14.75;9.23;;;;;;;;;;10429158;28;20338;-77
2023/12/07 11:39:02;;;;;;;14.88;8.25;;;;;;;;;;10406852;28;20242;-77
2023/12/07 11:44:05;;;;;;;20.83;9.10;;;;;;;;;;10381379;28;20230;-78
2023/12/07 11:49:10;;;;;;;12.10;7.60;;;;;;;;;;10382721;28;20216;-77
2023/12/07 11:54:11;;;;;;;15.90;8.20;;;;;;;;;;10420703;28;20208;-79
2023/12/07 11:59:12;;;;;;;14.68;8.25;;;;;;;;;;10437363;28;20214;-78
2023/12/07 12:04:13;;;;;;;12.43;7.43;;;;;;;;;;10451375;28;20229;-80
2023/12/07 12:09:18;;;;;;;13.43;7.45;;;;;;;;;;10447456;28;20278;-79
2023/12/07 12:14:19;;;;;;;13.88;8.13;;;;;;;;;;10425104;28;20219;-75
2023/12/07 12:19:20;;;;;;;11.48;7.80;;;;;;;;;;10426020;28;21000;-78
2023/12/07 12:24:21;;;;;;;13.93;8.07;;;;;;;;;;10430400;28;20317;-77
2023/12/07 12:29:23;;;;;;;12.88;7.47;;;;;;;;;;10418096;28;20217;-78
2023/12/07 12:34:24;;;;;;;10.30;6.70;;;;;;;;;;10396010;28;20227;-79
2023/12/07 12:39:29;;;;;;;12.48;7.22;;;;;;;;;;10457209;28;20210;-79
2023/12/07 12:44:31;;;;;;;13.23;7.43;;;;;;;;;;10401839;28;20715;-79
2023/12/07 12:49:36;;;;;;;12.35;7.47;;;;;;;;;;10423072;28;20223;-78
2023/12/07 12:54:37;;;;;;;11.38;7.20;;;;;;;;;;10424951;28;20211;-81
2023/12/07 12:59:38;;;;;;;11.80;7.75;;;;;;;;;;10422639;28;20214;-81
2023/12/07 13:04:40;;;;;;;9.57;7.53;;;;;;;;;;10435144;28;20280;-78
2023/12/07 13:09:43;;;;;;;13.35;8.77;;;;;;;;;;10426204;28;20217;-78
2023/12/07 13:14:44;;;;;;;11.65;7.22;;;;;;;;;;10428197;28;20199;-78
2023/12/07 13:19:45;;;;;;;15.50;8.63;;;;;;;;;;10436306;28;20211;-78
2023/12/07 13:24:49;;;;;;;12.75;7.50;;;;;;;;;;10437634;28;20218;-79
2023/12/07 13:29:50;;;;;;;14.10;8.02;;;;;;;;;;10392657;28;20219;-79
2023/12/07 13:34:52;;;;;;;12.68;8.02;;;;;;;;;;10432278;28;20213;-79
2023/12/07 13:39:57;;;;;;;11.50;7.55;;;;;;;;;;10392439;28;20207;-79
2023/12/07 13:45:00;;;;;;;15.30;7.78;;;;;;;;;;10426588;28;20221;-76
2023/12/07 13:50:03;;;;;;;11.55;7.63;;;;;;;;;;10429971;28;20518;-78
2023/12/07 13:55:04;;;;;;;13.57;8.40;;;;;;;;;;10407887;28;20230;-81
2023/12/07 14:00:05;;;;;;;14.48;8.43;;;;;;;;;;10429023;28;20293;-78
2023/12/07 14:05:07;;;;;;;12.00;7.43;;;;;;;;;;10435709;28;20241;-80
2023/12/07 14:10:09;;;;;;;14.73;7.85;;;;;;;;;;10428906;28;20206;-78
2023/12/07 14:15:10;;;;;;;14.05;8.77;;;;;;;;;;10419552;28;20187;-78
2023/12/07 14:20:12;;;;;;;13.88;8.63;;;;;;;;;;10431355;28;20282;-79
2023/12/07 14:25:13;;;;;;;22.35;11.80;;;;;;;;;;10412159;28;20205;-76
2023/12/07 14:30:16;;;;;;;19.00;8.57;;;;;;;;;;10425132;28;20221;-79
2023/12/07 14:35:17;;;;;;;12.63;8.18;;;;;;;;;;10428842;28;20262;-79
2023/12/07 14:40:18;;;;;;;10.02;6.65;;;;;;;;;;10429747;28;20636;-76
2023/12/07 14:45:20;;;;;;;11.55;7.13;;;;;;;;;;10416200;28;20649;-76
2023/12/07 14:50:21;;;;;;;12.27;7.47;;;;;;;;;;10409266;28;20223;-78
2023/12/07 14:55:22;;;;;;;12.25;7.68;;;;;;;;;;10431582;28;20207;-80
2023/12/07 15:00:26;;;;;;;11.93;7.47;;;;;;;;;;10430827;28;20241;-79
2023/12/07 15:05:27;;;;;;;10.45;6.65;;;;;;;;;;10430701;28;20253;-77
2023/12/07 15:10:29;;;;;;;11.10;6.65;;;;;;;;;;10431995;28;20246;-80
2023/12/07 15:15:30;;;;;;;11.90;6.65;;;;;;;;;;10409175;28;20268;-75
2023/12/07 15:20:31;;;;;;;9.60;6.47;;;;;;;;;;10416235;28;20218;-79
2023/12/07 15:25:32;;;;;;;13.00;7.03;;;;;;;;;;10428143;28;20277;-75
2023/12/07 15:30:34;;;;;;;11.52;7.25;;;;;;;;;;10455543;28;20207;-77
2023/12/07 15:35:35;;;;;;;11.07;6.80;;;;;;;;;;10433894;28;20688;-78
2023/12/07 15:40:37;;;;;;;14.32;6.63;;;;;;;;;;10432234;28;20221;-77
2023/12/07 15:45:38;;;;;;;14.02;7.95;;;;;;;;;;10402333;28;20213;-77
2023/12/07 15:50:39;;;;;;;16.90;9.68;;;;;;;;;;10433309;28;20687;-77
2023/12/07 15:55:40;;;;;;;18.50;10.60;;;;;;;;;;10429156;28;20760;-77
2023/12/07 16:00:42;;;;;;;16.83;9.90;;;;;;;;;;10428274;28;20957;-78
2023/12/07 16:05:43;;;;;;;14.05;8.85;;;;;;;;;;10418019;28;20229;-77
2023/12/07 16:10:44;;;;;;;13.13;8.90;;;;;;;;;;10425599;28;20222;-77
2023/12/07 16:15:45;;;;;;;15.95;9.50;;;;;;;;;;10407991;28;20245;-76
2023/12/07 16:20:47;;;;;;;12.77;8.73;;;;;;;;;;10426824;28;20218;-75
2023/12/07 16:25:48;;;;;;;16.80;9.35;;;;;;;;;;10419683;28;20221;-79
2023/12/07 16:30:49;;;;;;;22.65;10.50;;;;;;;;;;10428366;28;20225;-78
2023/12/07 16:35:50;;;;;;;19.73;10.65;;;;;;;;;;10424128;28;20242;-78
2023/12/07 16:40:51;;;;;;;16.33;9.57;;;;;;;;;;10373791;28;20215;-78
2023/12/07 16:45:52;;;;;;;14.25;8.18;;;;;;;;;;10426026;28;20214;-78
2023/12/07 16:50:53;;;;;;;16.60;8.48;;;;;;;;;;10426080;28;20211;-78
2023/12/07 16:55:55;;;;;;;14.65;8.57;;;;;;;;;;10401457;28;20198;-76
2023/12/07 17:00:56;;;;;;;17.08;8.85;;;;;;;;;;10424994;28;20310;-76
2023/12/07 17:05:58;;;;;;;13.50;8.32;;;;;;;;;;10426798;28;20226;-78
2023/12/07 17:10:59;;;;;;;14.07;8.20;;;;;;;;;;10415243;28;20215;-78
2023/12/07 17:16:00;;;;;;;16.00;8.88;;;;;;;;;;10443613;28;20214;-77
2023/12/07 17:21:02;;;;;;;17.90;9.98;;;;;;;;;;10448183;28;20226;-78
2023/12/07 17:26:04;;;;;;;15.25;8.63;;;;;;;;;;10420189;28;20281;-77
2023/12/07 17:31:05;;;;;;;15.48;9.13;;;;;;;;;;10402981;28;20696;-80
2023/12/07 17:36:06;;;;;;;14.20;8.40;;;;;;;;;;10437367;28;20202;-80
2023/12/07 17:41:08;;;;;;;15.00;7.75;;;;;;;;;;10437488;28;20223;-78
2023/12/07 17:46:10;;;;;;;13.82;7.38;;;;;;;;;;10399429;28;20219;-78
2023/12/07 17:51:11;;;;;;;10.38;6.32;;;;;;;;;;10386773;28;20226;-77
2023/12/07 17:56:12;;;;;;;9.15;6.20;;;;;;;;;;10400150;28;20215;-77
2023/12/07 18:01:23;;;;;;;9.32;5.70;;;;;;;;;;10405519;28;20349;-77
2023/12/07 18:06:24;;;;;;;6.82;4.88;;;;;;;;;;10412535;28;20226;-76
2023/12/07 18:11:26;;;;;;;6.93;5.38;;;;;;;;;;10406747;28;20234;-77
2023/12/07 18:16:27;;;;;;;5.85;4.82;;;;;;;;;;10398880;28;20290;-78
2023/12/07 18:21:29;;;;;;;5.07;4.57;;;;;;;;;;10405137;28;20664;-78
2023/12/07 18:26:34;;;;;;;8.20;5.32;;;;;;;;;;10386061;28;20215;-78
2023/12/07 18:31:35;;;;;;;7.00;5.03;;;;;;;;;;10423659;28;20240;-77
2023/12/07 18:36:36;;;;;;;7.13;5.20;;;;;;;;;;10445886;28;20233;-81
2023/12/07 18:41:37;;;;;;;7.18;5.03;;;;;;;;;;10441916;28;20800;-76
2023/12/07 18:46:38;;;;;;;11.35;5.93;;;;;;;;;;10439687;28;20226;-76
2023/12/07 18:51:39;;;;;;;11.80;5.82;;;;;;;;;;10449448;28;20228;-77
2023/12/07 18:56:40;;;;;;;8.02;5.30;;;;;;;;;;10437217;28;20210;-78
2023/12/07 19:01:42;;;;;;;7.07;4.68;;;;;;;;;;10399002;28;20736;-76
2023/12/07 19:06:43;;;;;;;4.63;4.18;;;;;;;;;;10403921;28;20227;-77
2023/12/07 19:11:46;;;;;;;9.10;5.03;;;;;;;;;;10427069;28;20837;-78
2023/12/07 19:16:47;;;;;;;7.55;5.03;;;;;;;;;;10441823;28;20213;-79
2023/12/07 19:21:49;;;;;;;7.57;4.55;;;;;;;;;;10447251;28;20254;-77
2023/12/07 19:26:50;;;;;;;8.20;5.90;;;;;;;;;;10414253;28;22137;-77
2023/12/07 19:31:51;;;;;;;7.80;5.60;;;;;;;;;;10377507;28;20222;-76
2023/12/07 19:36:53;;;;;;;10.65;4.80;;;;;;;;;;10421988;28;20629;-75
2023/12/07 19:41:54;;;;;;;8.82;5.32;;;;;;;;;;10437446;28;20218;-76
2023/12/07 19:46:55;;;;;;;8.25;5.53;;;;;;;;;;10438557;28;20932;-79
2023/12/07 19:51:56;;;;;;;9.77;5.68;;;;;;;;;;10434581;28;20265;-76
2023/12/07 19:56:57;;;;;;;7.03;5.30;;;;;;;;;;10429588;28;20215;-77
2023/12/07 20:01:58;;;;;;;8.88;5.07;;;;;;;;;;10431160;28;20253;-77
2023/12/07 20:06:59;;;;;;;6.93;4.90;;;;;;;;;;10431325;28;20230;-78
2023/12/07 20:12:01;;;;;;;6.22;4.43;;;;;;;;;;10444141;28;20229;-78
2023/12/07 20:17:02;;;;;;;5.72;4.90;;;;;;;;;;10412701;28;20298;-76
2023/12/07 20:22:09;;;;;;;6.32;4.95;;;;;;;;;;10423698;28;20222;-77
2023/12/07 20:27:10;;;;;;;6.47;5.45;;;;;;;;;;10389082;28;20239;-77
2023/12/07 20:32:11;;;;;;;8.07;4.68;;;;;;;;;;10392831;28;20226;-77
2023/12/07 20:37:12;;;;;;;9.88;5.47;;;;;;;;;;10414684;28;20219;-80
2023/12/07 20:42:14;;;;;;;10.27;6.70;;;;;;;;;;10448204;28;20214;-76
2023/12/07 20:47:15;;;;;;;12.23;6.63;;;;;;;;;;10422998;28;20685;-79
2023/12/07 20:52:16;;;;;;;12.40;6.75;;;;;;;;;;10429858;28;20223;-80
2023/12/07 20:57:18;;;;;;;11.60;6.28;;;;;;;;;;10439503;28;20211;-78
2023/12/07 21:02:19;;;;;;;12.68;6.80;;;;;;;;;;10418016;28;20219;-77
2023/12/07 21:07:20;;;;;;;14.10;6.25;;;;;;;;;;10425978;28;20223;-77
2023/12/07 21:12:21;;;;;;;7.45;5.25;;;;;;;;;;10431799;28;20214;-79
2023/12/07 21:17:23;;;;;;;8.13;6.95;;;;;;;;;;10428261;28;20215;-79
2023/12/07 21:22:24;;;;;;;9.25;6.10;;;;;;;;;;10408013;28;20726;-77
2023/12/07 21:27:25;;;;;;;8.48;5.70;;;;;;;;;;10387118;28;20215;-76
2023/12/07 21:32:26;;;;;;;12.95;6.20;;;;;;;;;;10386763;28;20226;-77
2023/12/07 21:37:27;;;;;;;13.75;6.03;;;;;;;;;;10394086;28;20400;-76
2023/12/07 21:42:28;;;;;;;14.70;6.78;;;;;;;;;;10399000;28;20204;-79
2023/12/07 21:47:29;;;;;;;9.23;6.43;;;;;;;;;;10388703;28;20362;-78
2023/12/07 21:52:30;;;;;;;11.43;6.32;;;;;;;;;;10377517;28;20334;-78
2023/12/07 21:57:31;;;;;;;12.10;5.72;;;;;;;;;;10392120;28;20319;-78
2023/12/07 22:02:32;;;;;;;8.88;5.55;;;;;;;;;;10377167;28;20298;-79
2023/12/07 22:07:33;;;;;;;10.57;6.10;;;;;;;;;;10384743;28;20235;-77
2023/12/07 22:12:34;;;;;;;20.10;6.70;;;;;;;;;;10402289;28;20375;-77
2023/12/07 22:17:35;;;;;;;10.02;5.97;;;;;;;;;;10384910;28;20203;-77
2023/12/07 22:22:37;;;;;;;9.50;6.20;;;;;;;;;;10410486;28;20697;-77
2023/12/07 22:27:38;;;;;;;9.23;5.85;;;;;;;;;;10404487;28;20230;-77
2023/12/07 22:32:39;;;;;;;11.98;6.10;;;;;;;;;;10403666;28;20241;-79
2023/12/07 22:37:40;;;;;;;11.95;6.95;;;;;;;;;;10401189;28;20229;-77
2023/12/07 22:42:41;;;;;;;14.77;7.55;;;;;;;;;;10427807;28;20226;-77
2023/12/07 22:47:42;;;;;;;11.80;7.47;;;;;;;;;;10434741;28;21244;-77
2023/12/07 22:52:43;;;;;;;15.70;7.38;;;;;;;;;;10449158;28;20214;-77
2023/12/07 22:57:44;;;;;;;14.90;8.10;;;;;;;;;;10446850;28;20214;-76
2023/12/07 23:02:48;;;;;;;15.38;7.60;;;;;;;;;;10440173;28;20221;-76
2023/12/07 23:07:49;;;;;;;15.23;7.35;;;;;;;;;;10453832;28;20231;-77
2023/12/07 23:12:50;;;;;;;12.57;7.50;;;;;;;;;;10475154;28;20230;-77
2023/12/07 23:17:51;;;;;;;12.27;7.38;;;;;;;;;;10443960;28;20244;-77
2023/12/07 23:22:52;;;;;;;13.85;6.95;;;;;;;;;;10438300;28;20269;-76
2023/12/07 23:27:54;;;;;;;15.00;7.57;;;;;;;;;;10444750;28;20241;-77
2023/12/07 23:32:55;;;;;;;13.73;7.38;;;;;;;;;;10433502;28;20248;-77
2023/12/07 23:37:56;;;;;;;20.88;8.93;;;;;;;;;;10417573;28;20306;-77
2023/12/07 23:42:57;;;;;;;14.85;8.05;;;;;;;;;;10394068;28;20741;-77
2023/12/07 23:47:58;;;;;;;21.88;8.75;;;;;;;;;;10425284;28;20211;-77
2023/12/07 23:52:59;;;;;;;20.10;8.60;;;;;;;;;;10431168;28;20510;-77
2023/12/07 23:58:01;;;;;;;16.33;7.85;;;;;;;;;;10436807;28;21322;-77
